x

Ilm2 - 5 Miles Se Of Wrightsville Beach, Nc (41038) Weather Station

10:00 - Mon 30th Mar 2015 All times are EDT. -4 hours from GMT.

  • Wind
    9mph
  • Sea Temp 55°f
  • Luft Temp 57°f
  • Sea Pressure 1017.2mb
  • Ilm2 - 5 Miles Se Of Wrightsville Beach, Nc
  • Ilm2 - 5 Miles Se Of Wrightsville Beach, Nc

More Historic Weather Station data

Upgrade to MSW Pro to gain access to the past 30 days of data for over 8000 Wavebouys and Weather Stations around the globe.

Join Pro

Comparision Forecast

View Surf forecast
   
Mo 03/30 10:00 9
mph
1017.2mb 55f 57f
9:00 4 7 mph 1016.6mb 55f 57f
8:00 9 11 mph 1016mb 55f 60f
7:00 13 16 mph 1015mb 56f 61f
6:00 16 18 mph 1014.8mb 56f 59f
5:00 18 20 mph 1014.7mb 55f 58f
4:00 16 18 mph 1015.3mb 55f 58f
3:00 16 18 mph 1016.5mb 55f 58f
1:00 25 29 mph 1018.1mb 55f 57f
12:00 29 34 mph 1018.9mb 55f 58f
11:00 20 25 mph 1020.4mb 55f 57f
10:00 22 27 mph 1021.1mb 55f 57f
9:00 22 27 mph 1021mb 55f 56f
8:00 20 22 mph 1021.4mb 55f 56f
7:00 20 22 mph 1022mb 55f 55f
6:00 18 22 mph 1022.3mb 55f 54f
5:00 18 20 mph 1022.5mb 55f 53f
4:00 18 22 mph 1023.1mb 55f 52f
3:00 18 20 mph 1024mb 55f 52f
2:00 13 16 mph 1024.8mb 55f 51f
1:00 13 18 mph 1025.8mb 55f 51f
12:00 11 13 mph 1026.5mb 55f 50f
So 03/29 11:00 13 18 mph 1026.3mb 55f 49f
10:00 13 18 mph 1027.2mb 55f 49f
9:00 13 16 mph 1027.2mb 56f 48f
8:00 11 13 mph 1027.2mb 56f 47f
7:00 7 9 mph 1027.6mb 56f 48f
5:00 13 18 mph 1027.7mb 57f 46f
4:00 2 4 mph 1027.8mb 57f 45f
3:00 7
mph
1028mb 56f 44f
2:00 4 7 mph 1029.5mb 56f 43f
1:00 2 4 mph 1030.3mb 56f 42f
12:00 4 7 mph 1030.9mb 55f 40f
11:00 11 13 mph 1031.1mb 55f 38f
10:00 16 20 mph 1030.9mb 55f 37f
9:00 18 20 mph 1029.9mb 55f 37f
8:00 18 22 mph 1028.9mb 55f 38f
7:00 22 27 mph 1028mb 55f 37f
6:00 20 27 mph 1027mb 55f 37f
5:00 27 31 mph 1025.9mb 56f 39f
4:00 25 29 mph 1025.1mb 56f 39f
3:00 29 34 mph 1024.8mb 56f 40f
1:00 27 31 mph 1024.1mb 56f 44f
12:00 20 22 mph 1023.4mb 56f 47f
Sa 03/28 11:00 20 22 mph 1022.9mb 56f 48f
10:00 22 25 mph 1021.9mb 56f 48f
9:00 20 25 mph 1021mb 56f 49f
8:00 20 22 mph 1019.3mb 56f 51f
7:00 20 25 mph 1017.9mb 56f 52f
6:00 20 25 mph 1017.1mb 56f 52f
5:00 16 20 mph 1016.3mb 56f 53f
4:00 18 20 mph 1016.1mb 56f 51f
3:00 18 20 mph 1016.3mb 56f 50f
2:00 18 22 mph 1016.4mb 56f 49f
1:00 9 11 mph 1016.5mb 56f 49f
12:00 11 16 mph 1017mb 56f 47f
11:00 13 16 mph 1016.7mb 56f 46f
10:00 16 20 mph 1016mb 56f 45f
9:00 20 27 mph 1015.8mb 56f 44f
8:00 20 25 mph 1014.9mb 56f 44f
6:00 16 20 mph 1012.3mb 56f 47f
5:00 13 20 mph 1011.4mb 56f 46f
4:00 20 25 mph 1010.5mb 56f 46f
3:00 20 22 mph 1010.4mb 56f 46f
2:00 18 22 mph 1009.6mb 56f 46f
1:00 16 18 mph 1008.6mb 56f 46f
12:00 16 20 mph 1008.9mb 56f 47f
Fr 03/27 11:00 20 27 mph 1008.7mb 56f 47f
10:00 22 25 mph 1007.4mb 56f 47f
9:00 25 27 mph 1006.5mb 56f 48f
8:00 25 31 mph 1006.2mb 57f 50f
7:00 22 27 mph 1005.1mb 57f 50f
6:00 20 27 mph 1004.7mb 57f 51f
5:00 20 25 mph 1004.6mb 57f 52f
4:00 22 27 mph 1003.5mb 57f 53f
3:00 22 27 mph 1004.1mb 58f 55f
2:00 13 18 mph 1003.7mb 58f 61f
1:00 20 25 mph 1004.2mb 58f 62f
11:00 13 16 mph 1004.6mb 58f 60f
10:00 11 13 mph 1004.9mb 58f 59f
9:00 9 11 mph 1005.1mb 58f 59f
8:00 9 11 mph 1005.1mb 58f 59f
7:00 4 7 mph 1005mb 58f 59f
6:00 4 7 mph 1005.1mb 57f 60f
5:00 7 9 mph 1005.2mb 57f 60f
4:00 11 13 mph 1006.4mb 57f 61f